Waverunner — ZCTE7 — position and weather

sailwx.info

Track history (hours):
 
Tides and Currents Weather Stations Pressure Air Temp Water Temp Dewpoint Dewpoint Depression Visibility Wind Speed Wind Dir Waves Ship Positions

Waverunner

Last reported at 2016-Jul-31 04:33 UTC. Time now 2016-Jul-31 07:24 UTC.
Position N 39°15' E 003°18'.

Length 41 m; draft 2 m.

MMSI: 319804000.

Date/timePositionNaut miles runAvg speedWind from/ knotsBaromVisibWave heightAir tempDewpointWater temp
2016-Jul-31 04:33N 39°15' E 003°18'3114.7
2016-Jul-31 02:29N 38°59' E 002°44'1314.4
2016-Jul-31 01:33N 38°53' E 002°29'1614.4
2016-Jul-31 00:27N 38°45' E 002°11'6813.6
2016-Jul-30 19:29N 38°12' E 000°56'1514.0
2016-Jul-30 18:25N 38°04' E 000°40'1214.2
2016-Jul-30 17:33N 37°58' E 000°26'1413.7
2016-Jul-30 16:33N 37°51' E 000°11'1614.5
2016-Jul-30 15:28N 37°43' W 000°06'1313.8
2016-Jul-30 14:32N 37°37' W 000°21'25312.3
2016-Jul-29 18:04N 36°08' W 005°16'5 9.7
2016-Jul-29 17:34N 36°07' W 005°22'2 0.1
2016-Jul-29 01:23N 36°09' W 005°22'  
2016-Jul-25 16:33N 38°48' E 001°24'4 3.9
2016-Jul-25 15:33N 38°45' E 001°27'0 0.0
2016-Jul-25 14:33N 38°45' E 001°27'0 0.0
2016-Jul-25 12:26N 38°45' E 001°27'0 0.0
2016-Jul-25 11:33N 38°45' E 001°27'0 0.0
2016-Jul-25 10:29N 38°45' E 001°27'0 0.0
2016-Jul-25 09:32N 38°45' E 001°27'0 0.0
2016-Jul-25 03:05N 38°45' E 001°27'0 0.0
2016-Jul-24 19:32N 38°45' E 001°27'0 0.0
2016-Jul-24 15:32N 38°45' E 001°27'9 7.1
2016-Jul-24 14:16N 38°54' E 001°27'3 0.2
2016-Jul-23 23:27N 38°55' E 001°31'1415.0
2016-Jul-23 22:33N 39°04' E 001°45'1515.0
2016-Jul-23 21:33N 39°13' E 001°59'1515.0
2016-Jul-23 20:34N 39°23' E 002°14'1211.9
2016-Jul-23 19:32N 39°32' E 002°25'0 0.0
2016-Jul-23 18:33N 39°32' E 002°25'0 0.0
2016-Jul-23 17:33N 39°32' E 002°25'0 0.0
2016-Jul-23 16:33N 39°32' E 002°25'0 0.0
2016-Jul-23 15:33N 39°32' E 002°25'0 0.0
2016-Jul-23 14:33N 39°32' E 002°25'0 0.0
2016-Jul-23 13:33N 39°32' E 002°25'0 0.0
2016-Jul-23 12:33N 39°32' E 002°25'0 0.0
2016-Jul-23 11:33N 39°32' E 002°25'7 6.8
2016-Jul-23 10:33N 39°27' E 002°30'9 9.0
2016-Jul-23 09:33N 39°34' E 002°38'0 0.0
2016-Jul-23 08:33N 39°34' E 002°38'0 0.0
2016-Jul-23 07:33N 39°34' E 002°38'0 0.0
2016-Jul-23 06:33N 39°34' E 002°38'0 0.0
2016-Jul-23 04:33N 39°34' E 002°38'0 0.0
2016-Jul-23 03:33N 39°34' E 002°38'0 0.0
2016-Jul-23 02:33N 39°34' E 002°38'0 0.0
2016-Jul-23 01:33N 39°34' E 002°38'0 0.0
2016-Jul-23 00:33N 39°34' E 002°38'0 0.0
2016-Jul-22 23:33N 39°34' E 002°38'0 0.0
2016-Jul-22 22:33N 39°34' E 002°38'0 0.0
2016-Jul-22 21:33N 39°34' E 002°38'0 0.0
2016-Jul-22 20:34N 39°34' E 002°38'0 0.0
2016-Jul-22 19:33N 39°34' E 002°38'0 0.0
2016-Jul-22 18:33N 39°34' E 002°38'0 0.0
2016-Jul-22 17:33N 39°34' E 002°38'0 0.0
2016-Jul-22 16:33N 39°34' E 002°38'0 0.0
2016-Jul-22 15:33N 39°34' E 002°38'0 0.0
2016-Jul-22 14:33N 39°34' E 002°38'0 0.0
2016-Jul-22 13:33N 39°34' E 002°38'0 0.0
2016-Jul-22 12:33N 39°34' E 002°38'0 0.0
2016-Jul-22 11:34N 39°34' E 002°38'0 0.0
2016-Jul-22 10:33N 39°34' E 002°38'0 0.0
2016-Jul-22 09:33N 39°34' E 002°38'0 0.0
2016-Jul-22 08:34N 39°34' E 002°38'0 0.0
2016-Jul-22 07:34N 39°34' E 002°38'0 0.0
2016-Jul-22 05:33N 39°34' E 002°38'0 0.0
2016-Jul-22 04:33N 39°34' E 002°38'0 0.0
2016-Jul-22 03:34N 39°34' E 002°38'0 0.0
2016-Jul-22 02:33N 39°34' E 002°38'0 0.0
2016-Jul-22 01:33N 39°34' E 002°38'0 0.0
2016-Jul-22 00:33N 39°34' E 002°38'0 0.0
2016-Jul-21 23:34N 39°34' E 002°38'0 0.0
2016-Jul-21 22:33N 39°34' E 002°38'0 0.1
2016-Jul-21 21:33N 39°34' E 002°38'1010.1
2016-Jul-21 20:33N 39°28' E 002°27'1110.3
2016-Jul-21 19:30N 39°38' E 002°23'1515.4
2016-Jul-21 18:33N 39°47' E 002°38'2 2.5
2016-Jul-21 17:33N 39°48' E 002°41'0 0.0
2016-Jul-21 16:33N 39°48' E 002°41'8 7.6
2016-Jul-21 15:32N 39°53' E 002°49'1414.3
2016-Jul-21 14:33N 39°57' E 003°06'10 1.3
2016-Jul-21 06:17N 39°56' E 003°20'1214.1
2016-Jul-21 05:28N 39°57' E 003°34'  
Track history (hours):
 
Tides and Currents Weather Stations Pressure Air Temp Water Temp Dewpoint Dewpoint Depression Visibility Wind Speed Wind Dir Waves Ship Positions

Waverunner

Last reported at 2016-Jul-31 04:33 UTC. Time now 2016-Jul-31 07:24 UTC.
Position N 39°15' E 003°18'.

Length 41 m; draft 2 m.

MMSI: 319804000.

Date/timePositionNaut miles runAvg speedWind from/ knotsBaromVisibWave heightAir tempDewpointWater temp
2016-Jul-31 04:33N 39°15' E 003°18'3114.7
2016-Jul-31 02:29N 38°59' E 002°44'1314.4
2016-Jul-31 01:33N 38°53' E 002°29'1614.4
2016-Jul-31 00:27N 38°45' E 002°11'6813.6
2016-Jul-30 19:29N 38°12' E 000°56'1514.0
2016-Jul-30 18:25N 38°04' E 000°40'1214.2
2016-Jul-30 17:33N 37°58' E 000°26'1413.7
2016-Jul-30 16:33N 37°51' E 000°11'1614.5
2016-Jul-30 15:28N 37°43' W 000°06'1313.8
2016-Jul-30 14:32N 37°37' W 000°21'25312.3
2016-Jul-29 18:04N 36°08' W 005°16'5 9.7
2016-Jul-29 17:34N 36°07' W 005°22'2 0.1
2016-Jul-29 01:23N 36°09' W 005°22'  
2016-Jul-25 16:33N 38°48' E 001°24'4 3.9
2016-Jul-25 15:33N 38°45' E 001°27'0 0.0
2016-Jul-25 14:33N 38°45' E 001°27'0 0.0
2016-Jul-25 12:26N 38°45' E 001°27'0 0.0
2016-Jul-25 11:33N 38°45' E 001°27'0 0.0
2016-Jul-25 10:29N 38°45' E 001°27'0 0.0
2016-Jul-25 09:32N 38°45' E 001°27'0 0.0
2016-Jul-25 03:05N 38°45' E 001°27'0 0.0
2016-Jul-24 19:32N 38°45' E 001°27'0 0.0
2016-Jul-24 15:32N 38°45' E 001°27'9 7.1
2016-Jul-24 14:16N 38°54' E 001°27'3 0.2
2016-Jul-23 23:27N 38°55' E 001°31'1415.0
2016-Jul-23 22:33N 39°04' E 001°45'1515.0
2016-Jul-23 21:33N 39°13' E 001°59'1515.0
2016-Jul-23 20:34N 39°23' E 002°14'1211.9
2016-Jul-23 19:32N 39°32' E 002°25'0 0.0
2016-Jul-23 18:33N 39°32' E 002°25'0 0.0
2016-Jul-23 17:33N 39°32' E 002°25'0 0.0
2016-Jul-23 16:33N 39°32' E 002°25'0 0.0
2016-Jul-23 15:33N 39°32' E 002°25'0 0.0
2016-Jul-23 14:33N 39°32' E 002°25'0 0.0
2016-Jul-23 13:33N 39°32' E 002°25'0 0.0
2016-Jul-23 12:33N 39°32' E 002°25'0 0.0
2016-Jul-23 11:33N 39°32' E 002°25'7 6.8
2016-Jul-23 10:33N 39°27' E 002°30'9 9.0
2016-Jul-23 09:33N 39°34' E 002°38'0 0.0
2016-Jul-23 08:33N 39°34' E 002°38'0 0.0
2016-Jul-23 07:33N 39°34' E 002°38'0 0.0
2016-Jul-23 06:33N 39°34' E 002°38'0 0.0
2016-Jul-23 04:33N 39°34' E 002°38'0 0.0
2016-Jul-23 03:33N 39°34' E 002°38'0 0.0
2016-Jul-23 02:33N 39°34' E 002°38'0 0.0
2016-Jul-23 01:33N 39°34' E 002°38'0 0.0
2016-Jul-23 00:33N 39°34' E 002°38'0 0.0
2016-Jul-22 23:33N 39°34' E 002°38'0 0.0
2016-Jul-22 22:33N 39°34' E 002°38'0 0.0
2016-Jul-22 21:33N 39°34' E 002°38'0 0.0
2016-Jul-22 20:34N 39°34' E 002°38'0 0.0
2016-Jul-22 19:33N 39°34' E 002°38'0 0.0
2016-Jul-22 18:33N 39°34' E 002°38'0 0.0
2016-Jul-22 17:33N 39°34' E 002°38'0 0.0
2016-Jul-22 16:33N 39°34' E 002°38'0 0.0
2016-Jul-22 15:33N 39°34' E 002°38'0 0.0
2016-Jul-22 14:33N 39°34' E 002°38'0 0.0
2016-Jul-22 13:33N 39°34' E 002°38'0 0.0
2016-Jul-22 12:33N 39°34' E 002°38'0 0.0
2016-Jul-22 11:34N 39°34' E 002°38'0 0.0
2016-Jul-22 10:33N 39°34' E 002°38'0 0.0
2016-Jul-22 09:33N 39°34' E 002°38'0 0.0
2016-Jul-22 08:34N 39°34' E 002°38'0 0.0
2016-Jul-22 07:34N 39°34' E 002°38'0 0.0
2016-Jul-22 05:33N 39°34' E 002°38'0 0.0
2016-Jul-22 04:33N 39°34' E 002°38'0 0.0
2016-Jul-22 03:34N 39°34' E 002°38'0 0.0
2016-Jul-22 02:33N 39°34' E 002°38'0 0.0
2016-Jul-22 01:33N 39°34' E 002°38'0 0.0
2016-Jul-22 00:33N 39°34' E 002°38'0 0.0
2016-Jul-21 23:34N 39°34' E 002°38'0 0.0
2016-Jul-21 22:33N 39°34' E 002°38'0 0.1
2016-Jul-21 21:33N 39°34' E 002°38'1010.1
2016-Jul-21 20:33N 39°28' E 002°27'1110.3
2016-Jul-21 19:30N 39°38' E 002°23'1515.4
2016-Jul-21 18:33N 39°47' E 002°38'2 2.5
2016-Jul-21 17:33N 39°48' E 002°41'0 0.0
2016-Jul-21 16:33N 39°48' E 002°41'8 7.6
2016-Jul-21 15:32N 39°53' E 002°49'1414.3
2016-Jul-21 14:33N 39°57' E 003°06'10 1.3
2016-Jul-21 06:17N 39°56' E 003°20'1214.1
2016-Jul-21 05:28N 39°57' E 003°34'  

Dump ship's entire track history